sensor_id;sensor_type;location;lat;lon;timestamp;temperature;humidity
11242;DHT22;5678;52.370;9.006;2023-04-24T00:00:14;10.60;99.90
11242;DHT22;5678;52.370;9.006;2023-04-24T00:02:44;10.90;99.90
11242;DHT22;5678;52.370;9.006;2023-04-24T00:05:14;12.70;99.90
11242;DHT22;5678;52.370;9.006;2023-04-24T00:07:45;11.90;99.90
11242;DHT22;5678;52.370;9.006;2023-04-24T00:10:13;10.60;99.90
11242;DHT22;5678;52.370;9.006;2023-04-24T00:12:41;10.60;99.90
11242;DHT22;5678;52.370;9.006;2023-04-24T00:15:10;10.30;99.90
11242;DHT22;5678;52.370;9.006;2023-04-24T00:17:38;10.90;99.90
11242;DHT22;5678;52.370;9.006;2023-04-24T00:20:07;10.90;99.90
11242;DHT22;5678;52.370;9.006;2023-04-24T00:22:37;10.80;99.90
11242;DHT22;5678;52.370;9.006;2023-04-24T00:25:07;11.30;99.90
11242;DHT22;5678;52.370;9.006;2023-04-24T00:27:35;10.80;99.90
11242;DHT22;5678;52.370;9.006;2023-04-24T00:30:04;10.80;99.90
11242;DHT22;5678;52.370;9.006;2023-04-24T00:32:33;10.80;99.90
11242;DHT22;5678;52.370;9.006;2023-04-24T00:35:00;10.50;99.90
11242;DHT22;5678;52.370;9.006;2023-04-24T00:37:28;11.10;99.90
11242;DHT22;5678;52.370;9.006;2023-04-24T00:39:56;10.60;99.90
11242;DHT22;5678;52.370;9.006;2023-04-24T00:42:25;10.70;99.90
11242;DHT22;5678;52.370;9.006;2023-04-24T00:44:54;10.60;99.90
11242;DHT22;5678;52.370;9.006;2023-04-24T00:47:22;10.30;99.90
11242;DHT22;5678;52.370;9.006;2023-04-24T00:49:50;10.60;99.90
11242;DHT22;5678;52.370;9.006;2023-04-24T00:52:17;10.30;99.90
11242;DHT22;5678;52.370;9.006;2023-04-24T00:54:45;10.30;99.90
11242;DHT22;5678;52.370;9.006;2023-04-24T00:57:14;10.20;99.90
11242;DHT22;5678;52.370;9.006;2023-04-24T00:59:44;10.10;99.90
11242;DHT22;5678;52.370;9.006;2023-04-24T01:02:12;9.90;99.90
11242;DHT22;5678;52.370;9.006;2023-04-24T01:04:42;10.70;99.90
11242;DHT22;5678;52.370;9.006;2023-04-24T01:07:10;10.00;99.90
11242;DHT22;5678;52.370;9.006;2023-04-24T01:09:40;11.90;99.90
11242;DHT22;5678;52.370;9.006;2023-04-24T01:12:08;9.90;99.90
11242;DHT22;5678;52.370;9.006;2023-04-24T01:14:37;9.90;99.90
11242;DHT22;5678;52.370;9.006;2023-04-24T01:17:06;9.80;99.90
11242;DHT22;5678;52.370;9.006;2023-04-24T01:19:35;9.80;99.90
11242;DHT22;5678;52.370;9.006;2023-04-24T01:22:08;9.90;99.90
11242;DHT22;5678;52.370;9.006;2023-04-24T01:24:37;9.90;99.90
11242;DHT22;5678;52.370;9.006;2023-04-24T01:27:05;9.90;99.90
11242;DHT22;5678;52.370;9.006;2023-04-24T01:29:34;9.80;99.90
11242;DHT22;5678;52.370;9.006;2023-04-24T01:32:03;9.40;99.90
11242;DHT22;5678;52.370;9.006;2023-04-24T01:34:31;9.80;99.90
11242;DHT22;5678;52.370;9.006;2023-04-24T01:36:59;9.60;99.90
11242;DHT22;5678;52.370;9.006;2023-04-24T01:39:29;9.70;99.90
11242;DHT22;5678;52.370;9.006;2023-04-24T01:41:57;9.60;99.90
11242;DHT22;5678;52.370;9.006;2023-04-24T01:44:25;9.40;99.90
11242;DHT22;5678;52.370;9.006;2023-04-24T01:46:54;9.50;99.90
11242;DHT22;5678;52.370;9.006;2023-04-24T01:49:22;9.60;99.90
11242;DHT22;5678;52.370;9.006;2023-04-24T01:51:50;9.40;99.90
11242;DHT22;5678;52.370;9.006;2023-04-24T01:54:18;9.60;99.90
11242;DHT22;5678;52.370;9.006;2023-04-24T01:56:48;9.60;99.90
11242;DHT22;5678;52.370;9.006;2023-04-24T01:59:17;9.60;99.90
11242;DHT22;5678;52.370;9.006;2023-04-24T02:01:45;9.60;99.90
11242;DHT22;5678;52.370;9.006;2023-04-24T02:04:13;9.60;99.90
11242;DHT22;5678;52.370;9.006;2023-04-24T02:06:42;9.70;99.90
11242;DHT22;5678;52.370;9.006;2023-04-24T02:09:10;9.70;99.90
11242;DHT22;5678;52.370;9.006;2023-04-24T02:11:38;9.60;99.90
11242;DHT22;5678;52.370;9.006;2023-04-24T02:14:07;9.40;99.90
11242;DHT22;5678;52.370;9.006;2023-04-24T02:16:35;9.50;99.90
11242;DHT22;5678;52.370;9.006;2023-04-24T02:19:03;9.40;99.90
11242;DHT22;5678;52.370;9.006;2023-04-24T02:21:31;9.30;99.90
11242;DHT22;5678;52.370;9.006;2023-04-24T02:23:59;9.40;99.90
11242;DHT22;5678;52.370;9.006;2023-04-24T02:26:27;9.40;99.90
11242;DHT22;5678;52.370;9.006;2023-04-24T02:28:55;9.70;99.90
11242;DHT22;5678;52.370;9.006;2023-04-24T02:31:24;9.40;99.90
11242;DHT22;5678;52.370;9.006;2023-04-24T02:33:52;9.40;99.90
11242;DHT22;5678;52.370;9.006;2023-04-24T02:36:20;9.30;99.90
11242;DHT22;5678;52.370;9.006;2023-04-24T02:38:48;9.30;99.90
11242;DHT22;5678;52.370;9.006;2023-04-24T02:41:16;9.10;99.90
11242;DHT22;5678;52.370;9.006;2023-04-24T02:43:44;9.30;99.90
11242;DHT22;5678;52.370;9.006;2023-04-24T02:46:12;10.30;99.90
11242;DHT22;5678;52.370;9.006;2023-04-24T02:48:41;9.00;99.90
11242;DHT22;5678;52.370;9.006;2023-04-24T02:51:09;9.10;99.90
11242;DHT22;5678;52.370;9.006;2023-04-24T02:53:37;9.10;99.90
11242;DHT22;5678;52.370;9.006;2023-04-24T02:56:05;9.20;99.90
11242;DHT22;5678;52.370;9.006;2023-04-24T02:58:33;9.20;99.90
11242;DHT22;5678;52.370;9.006;2023-04-24T03:01:02;9.50;99.90
11242;DHT22;5678;52.370;9.006;2023-04-24T03:03:30;9.20;99.90
11242;DHT22;5678;52.370;9.006;2023-04-24T03:05:59;9.20;99.90
11242;DHT22;5678;52.370;9.006;2023-04-24T03:08:28;9.20;99.90
11242;DHT22;5678;52.370;9.006;2023-04-24T03:10:56;9.10;99.90
11242;DHT22;5678;52.370;9.006;2023-04-24T03:13:24;9.20;99.90
11242;DHT22;5678;52.370;9.006;2023-04-24T03:15:51;9.30;99.90
11242;DHT22;5678;52.370;9.006;2023-04-24T03:18:20;9.20;99.90
11242;DHT22;5678;52.370;9.006;2023-04-24T03:20:48;9.30;99.90
11242;DHT22;5678;52.370;9.006;2023-04-24T03:23:18;9.30;99.90
11242;DHT22;5678;52.370;9.006;2023-04-24T03:25:46;8.90;99.90
11242;DHT22;5678;52.370;9.006;2023-04-24T03:28:15;9.20;99.90
11242;DHT22;5678;52.370;9.006;2023-04-24T03:30:43;9.20;99.90
11242;DHT22;5678;52.370;9.006;2023-04-24T03:33:10;9.20;99.90
11242;DHT22;5678;52.370;9.006;2023-04-24T03:35:38;9.10;99.90
11242;DHT22;5678;52.370;9.006;2023-04-24T03:38:06;9.20;99.90
11242;DHT22;5678;52.370;9.006;2023-04-24T03:40:35;9.00;99.90
11242;DHT22;5678;52.370;9.006;2023-04-24T03:43:03;9.40;99.90
11242;DHT22;5678;52.370;9.006;2023-04-24T03:45:31;8.70;99.90
11242;DHT22;5678;52.370;9.006;2023-04-24T03:47:59;8.70;99.90
11242;DHT22;5678;52.370;9.006;2023-04-24T03:50:27;8.90;99.90
11242;DHT22;5678;52.370;9.006;2023-04-24T03:52:55;9.10;99.90
11242;DHT22;5678;52.370;9.006;2023-04-24T03:55:23;9.10;99.90
11242;DHT22;5678;52.370;9.006;2023-04-24T03:57:52;9.50;99.90
11242;DHT22;5678;52.370;9.006;2023-04-24T04:00:21;9.10;99.90
11242;DHT22;5678;52.370;9.006;2023-04-24T04:02:48;9.10;99.90
11242;DHT22;5678;52.370;9.006;2023-04-24T04:05:17;8.90;99.90
11242;DHT22;5678;52.370;9.006;2023-04-24T04:07:44;9.00;99.90
11242;DHT22;5678;52.370;9.006;2023-04-24T04:10:12;9.10;99.90
11242;DHT22;5678;52.370;9.006;2023-04-24T04:12:40;9.40;99.90
11242;DHT22;5678;52.370;9.006;2023-04-24T04:15:10;9.50;99.90
11242;DHT22;5678;52.370;9.006;2023-04-24T04:17:38;9.50;99.90
11242;DHT22;5678;52.370;9.006;2023-04-24T04:20:07;9.50;99.90
11242;DHT22;5678;52.370;9.006;2023-04-24T04:22:36;9.50;99.90
11242;DHT22;5678;52.370;9.006;2023-04-24T04:25:05;9.30;99.90
11242;DHT22;5678;52.370;9.006;2023-04-24T04:27:33;9.70;99.90
11242;DHT22;5678;52.370;9.006;2023-04-24T04:30:01;9.70;99.90
11242;DHT22;5678;52.370;9.006;2023-04-24T04:32:32;9.90;99.90
11242;DHT22;5678;52.370;9.006;2023-04-24T04:35:01;9.70;99.90
11242;DHT22;5678;52.370;9.006;2023-04-24T04:37:30;9.80;99.90
11242;DHT22;5678;52.370;9.006;2023-04-24T04:39:58;9.80;99.90
11242;DHT22;5678;52.370;9.006;2023-04-24T04:42:26;9.80;99.90
11242;DHT22;5678;52.370;9.006;2023-04-24T04:44:54;9.80;99.90
11242;DHT22;5678;52.370;9.006;2023-04-24T04:47:24;9.80;99.90
11242;DHT22;5678;52.370;9.006;2023-04-24T04:49:54;9.70;99.90
11242;DHT22;5678;52.370;9.006;2023-04-24T04:52:22;9.70;99.90
11242;DHT22;5678;52.370;9.006;2023-04-24T04:54:53;9.60;99.90
11242;DHT22;5678;52.370;9.006;2023-04-24T04:57:21;9.40;99.90
11242;DHT22;5678;52.370;9.006;2023-04-24T04:59:49;10.40;99.90
11242;DHT22;5678;52.370;9.006;2023-04-24T05:02:17;9.60;99.90
11242;DHT22;5678;52.370;9.006;2023-04-24T05:04:45;9.10;99.90
11242;DHT22;5678;52.370;9.006;2023-04-24T05:07:14;9.60;99.90
11242;DHT22;5678;52.370;9.006;2023-04-24T05:09:42;9.60;99.90
11242;DHT22;5678;52.370;9.006;2023-04-24T05:12:11;9.60;99.90
11242;DHT22;5678;52.370;9.006;2023-04-24T05:14:39;9.70;99.90
11242;DHT22;5678;52.370;9.006;2023-04-24T05:17:07;9.80;99.90
11242;DHT22;5678;52.370;9.006;2023-04-24T05:19:35;9.40;99.90
11242;DHT22;5678;52.370;9.006;2023-04-24T05:22:04;9.80;99.90
11242;DHT22;5678;52.370;9.006;2023-04-24T05:24:34;9.80;99.90
11242;DHT22;5678;52.370;9.006;2023-04-24T05:27:02;10.10;99.90
11242;DHT22;5678;52.370;9.006;2023-04-24T05:29:31;9.90;99.90
11242;DHT22;5678;52.370;9.006;2023-04-24T05:32:00;9.70;99.90
11242;DHT22;5678;52.370;9.006;2023-04-24T05:34:28;12.20;99.90
11242;DHT22;5678;52.370;9.006;2023-04-24T05:36:56;9.90;99.90
11242;DHT22;5678;52.370;9.006;2023-04-24T05:39:23;10.10;99.90
11242;DHT22;5678;52.370;9.006;2023-04-24T05:41:54;9.80;99.90
11242;DHT22;5678;52.370;9.006;2023-04-24T05:44:24;10.10;99.90
11242;DHT22;5678;52.370;9.006;2023-04-24T05:46:52;10.10;99.90
11242;DHT22;5678;52.370;9.006;2023-04-24T05:49:22;10.10;99.90
11242;DHT22;5678;52.370;9.006;2023-04-24T05:51:49;10.20;99.90
11242;DHT22;5678;52.370;9.006;2023-04-24T05:54:17;10.00;99.90
11242;DHT22;5678;52.370;9.006;2023-04-24T05:56:45;10.10;99.90
11242;DHT22;5678;52.370;9.006;2023-04-24T05:59:14;10.10;99.90
11242;DHT22;5678;52.370;9.006;2023-04-24T06:01:42;10.10;99.90
11242;DHT22;5678;52.370;9.006;2023-04-24T06:04:12;12.30;99.90
11242;DHT22;5678;52.370;9.006;2023-04-24T06:06:41;10.10;99.90
11242;DHT22;5678;52.370;9.006;2023-04-24T06:09:09;10.10;99.90
11242;DHT22;5678;52.370;9.006;2023-04-24T06:11:38;10.10;99.90
11242;DHT22;5678;52.370;9.006;2023-04-24T06:14:06;9.80;99.90
11242;DHT22;5678;52.370;9.006;2023-04-24T06:16:35;10.40;99.90
11242;DHT22;5678;52.370;9.006;2023-04-24T06:19:05;10.90;99.90
11242;DHT22;5678;52.370;9.006;2023-04-24T06:21:33;10.70;99.90
11242;DHT22;5678;52.370;9.006;2023-04-24T06:24:01;10.70;99.90
11242;DHT22;5678;52.370;9.006;2023-04-24T06:26:30;11.10;99.90
11242;DHT22;5678;52.370;9.006;2023-04-24T06:28:58;11.30;99.90
11242;DHT22;5678;52.370;9.006;2023-04-24T06:31:26;11.30;99.90
11242;DHT22;5678;52.370;9.006;2023-04-24T06:33:56;11.40;99.90
11242;DHT22;5678;52.370;9.006;2023-04-24T06:36:23;11.40;99.90
11242;DHT22;5678;52.370;9.006;2023-04-24T06:38:51;10.90;99.90
11242;DHT22;5678;52.370;9.006;2023-04-24T06:41:19;11.30;99.90
11242;DHT22;5678;52.370;9.006;2023-04-24T06:43:47;11.40;99.90
11242;DHT22;5678;52.370;9.006;2023-04-24T06:46:15;11.40;99.90
11242;DHT22;5678;52.370;9.006;2023-04-24T06:48:43;11.40;99.90
11242;DHT22;5678;52.370;9.006;2023-04-24T06:51:13;11.40;99.90
11242;DHT22;5678;52.370;9.006;2023-04-24T06:53:40;11.70;99.90
11242;DHT22;5678;52.370;9.006;2023-04-24T06:56:08;11.70;99.90
11242;DHT22;5678;52.370;9.006;2023-04-24T06:58:36;10.50;99.90
11242;DHT22;5678;52.370;9.006;2023-04-24T07:01:04;11.10;99.90
11242;DHT22;5678;52.370;9.006;2023-04-24T07:03:32;11.50;99.90
11242;DHT22;5678;52.370;9.006;2023-04-24T07:06:01;10.60;99.90
11242;DHT22;5678;52.370;9.006;2023-04-24T07:08:31;11.10;99.90
11242;DHT22;5678;52.370;9.006;2023-04-24T07:10:59;12.50;99.90
11242;DHT22;5678;52.370;9.006;2023-04-24T07:13:27;11.20;99.90
11242;DHT22;5678;52.370;9.006;2023-04-24T07:15:55;11.20;99.90
11242;DHT22;5678;52.370;9.006;2023-04-24T07:18:24;11.40;99.90
11242;DHT22;5678;52.370;9.006;2023-04-24T07:20:52;11.30;99.90
11242;DHT22;5678;52.370;9.006;2023-04-24T07:23:20;12.80;99.90
11242;DHT22;5678;52.370;9.006;2023-04-24T07:25:49;11.10;99.90
11242;DHT22;5678;52.370;9.006;2023-04-24T07:28:17;11.40;99.90
11242;DHT22;5678;52.370;9.006;2023-04-24T07:30:45;11.20;99.90
11242;DHT22;5678;52.370;9.006;2023-04-24T07:33:13;11.50;99.90
11242;DHT22;5678;52.370;9.006;2023-04-24T07:35:41;11.50;99.90
11242;DHT22;5678;52.370;9.006;2023-04-24T07:38:09;11.40;99.90
11242;DHT22;5678;52.370;9.006;2023-04-24T07:40:37;11.40;99.90
11242;DHT22;5678;52.370;9.006;2023-04-24T07:43:07;11.30;99.90
11242;DHT22;5678;52.370;9.006;2023-04-24T07:45:35;10.80;99.90
11242;DHT22;5678;52.370;9.006;2023-04-24T07:48:04;11.20;99.90
11242;DHT22;5678;52.370;9.006;2023-04-24T07:50:32;11.20;99.90
11242;DHT22;5678;52.370;9.006;2023-04-24T07:53:01;11.10;99.90
11242;DHT22;5678;52.370;9.006;2023-04-24T07:55:29;11.10;99.90
11242;DHT22;5678;52.370;9.006;2023-04-24T07:57:57;11.10;99.90
11242;DHT22;5678;52.370;9.006;2023-04-24T08:00:27;11.10;99.90
11242;DHT22;5678;52.370;9.006;2023-04-24T08:02:55;11.70;99.90
11242;DHT22;5678;52.370;9.006;2023-04-24T08:05:23;11.10;99.90
11242;DHT22;5678;52.370;9.006;2023-04-24T08:07:52;11.10;99.90
11242;DHT22;5678;52.370;9.006;2023-04-24T08:10:20;11.10;99.90
11242;DHT22;5678;52.370;9.006;2023-04-24T08:12:48;11.00;99.90
11242;DHT22;5678;52.370;9.006;2023-04-24T08:15:17;11.50;99.90
11242;DHT22;5678;52.370;9.006;2023-04-24T08:17:46;11.00;99.90
11242;DHT22;5678;52.370;9.006;2023-04-24T08:20:14;10.40;99.90
11242;DHT22;5678;52.370;9.006;2023-04-24T08:22:43;12.20;99.90
11242;DHT22;5678;52.370;9.006;2023-04-24T08:25:13;12.60;99.90
11242;DHT22;5678;52.370;9.006;2023-04-24T08:27:41;11.20;99.90
11242;DHT22;5678;52.370;9.006;2023-04-24T08:30:10;11.40;99.90
11242;DHT22;5678;52.370;9.006;2023-04-24T08:32:38;11.40;99.90
11242;DHT22;5678;52.370;9.006;2023-04-24T08:35:08;11.40;99.90
11242;DHT22;5678;52.370;9.006;2023-04-24T08:37:37;11.50;99.90
11242;DHT22;5678;52.370;9.006;2023-04-24T08:40:13;13.00;99.90
11242;DHT22;5678;52.370;9.006;2023-04-24T08:42:42;12.20;99.90
11242;DHT22;5678;52.370;9.006;2023-04-24T08:45:12;12.10;99.90
11242;DHT22;5678;52.370;9.006;2023-04-24T08:47:41;12.10;99.90
11242;DHT22;5678;52.370;9.006;2023-04-24T08:50:11;12.10;99.90
11242;DHT22;5678;52.370;9.006;2023-04-24T08:52:39;12.00;99.90
11242;DHT22;5678;52.370;9.006;2023-04-24T08:55:07;11.90;99.90
11242;DHT22;5678;52.370;9.006;2023-04-24T08:57:35;11.90;99.90
11242;DHT22;5678;52.370;9.006;2023-04-24T09:00:07;11.70;99.90
11242;DHT22;5678;52.370;9.006;2023-04-24T09:02:41;11.60;99.90
11242;DHT22;5678;52.370;9.006;2023-04-24T09:05:12;11.60;99.90
11242;DHT22;5678;52.370;9.006;2023-04-24T09:07:45;11.30;99.90
11242;DHT22;5678;52.370;9.006;2023-04-24T09:10:13;10.80;99.90
11242;DHT22;5678;52.370;9.006;2023-04-24T09:12:41;10.70;99.90
11242;DHT22;5678;52.370;9.006;2023-04-24T09:15:10;12.50;99.90
11242;DHT22;5678;52.370;9.006;2023-04-24T09:17:39;11.40;99.90
11242;DHT22;5678;52.370;9.006;2023-04-24T09:20:08;11.00;99.90
11242;DHT22;5678;52.370;9.006;2023-04-24T09:22:37;11.70;99.90
11242;DHT22;5678;52.370;9.006;2023-04-24T09:25:07;11.30;99.90
11242;DHT22;5678;52.370;9.006;2023-04-24T09:27:35;11.90;99.90
11242;DHT22;5678;52.370;9.006;2023-04-24T09:30:04;12.00;99.90
11242;DHT22;5678;52.370;9.006;2023-04-24T09:32:32;12.00;99.90
11242;DHT22;5678;52.370;9.006;2023-04-24T09:35:08;11.80;99.90
11242;DHT22;5678;52.370;9.006;2023-04-24T09:37:39;11.90;99.90
11242;DHT22;5678;52.370;9.006;2023-04-24T09:40:12;13.20;99.90
11242;DHT22;5678;52.370;9.006;2023-04-24T09:42:43;11.40;99.90
11242;DHT22;5678;52.370;9.006;2023-04-24T09:45:11;13.00;99.90
11242;DHT22;5678;52.370;9.006;2023-04-24T09:47:42;11.90;99.90
11242;DHT22;5678;52.370;9.006;2023-04-24T09:50:12;12.00;99.90
11242;DHT22;5678;52.370;9.006;2023-04-24T09:52:45;12.50;99.90
11242;DHT22;5678;52.370;9.006;2023-04-24T09:55:17;12.60;99.90
11242;DHT22;5678;52.370;9.006;2023-04-24T09:57:49;13.40;99.90
11242;DHT22;5678;52.370;9.006;2023-04-24T10:00:19;11.90;99.90
11242;DHT22;5678;52.370;9.006;2023-04-24T10:03:07;12.50;99.90
11242;DHT22;5678;52.370;9.006;2023-04-24T10:05:36;12.30;99.90
11242;DHT22;5678;52.370;9.006;2023-04-24T10:08:09;11.50;99.90
11242;DHT22;5678;52.370;9.006;2023-04-24T10:10:39;12.00;99.90
11242;DHT22;5678;52.370;9.006;2023-04-24T10:13:09;11.70;99.90
11242;DHT22;5678;52.370;9.006;2023-04-24T10:15:38;11.60;99.90
11242;DHT22;5678;52.370;9.006;2023-04-24T10:18:07;11.90;99.90
11242;DHT22;5678;52.370;9.006;2023-04-24T10:20:37;12.00;99.90
11242;DHT22;5678;52.370;9.006;2023-04-24T10:23:06;11.70;99.90
11242;DHT22;5678;52.370;9.006;2023-04-24T10:25:35;12.30;99.90
11242;DHT22;5678;52.370;9.006;2023-04-24T10:28:04;12.70;99.90
11242;DHT22;5678;52.370;9.006;2023-04-24T10:30:35;13.90;99.90
11242;DHT22;5678;52.370;9.006;2023-04-24T10:33:04;13.20;99.90
11242;DHT22;5678;52.370;9.006;2023-04-24T10:35:36;13.50;99.90
11242;DHT22;5678;52.370;9.006;2023-04-24T10:38:09;13.70;99.90
11242;DHT22;5678;52.370;9.006;2023-04-24T10:40:37;14.10;99.90
11242;DHT22;5678;52.370;9.006;2023-04-24T10:43:06;13.10;99.90
11242;DHT22;5678;52.370;9.006;2023-04-24T10:45:34;12.70;99.90
11242;DHT22;5678;52.370;9.006;2023-04-24T10:48:04;12.50;99.90
11242;DHT22;5678;52.370;9.006;2023-04-24T10:50:43;12.90;99.90
11242;DHT22;5678;52.370;9.006;2023-04-24T10:53:17;12.20;99.90
11242;DHT22;5678;52.370;9.006;2023-04-24T10:55:47;13.10;99.90
11242;DHT22;5678;52.370;9.006;2023-04-24T10:58:16;12.40;99.90
11242;DHT22;5678;52.370;9.006;2023-04-24T11:00:46;13.20;99.90
11242;DHT22;5678;52.370;9.006;2023-04-24T11:03:24;12.70;99.90
11242;DHT22;5678;52.370;9.006;2023-04-24T11:05:55;13.80;99.90
11242;DHT22;5678;52.370;9.006;2023-04-24T11:08:30;15.00;99.90
11242;DHT22;5678;52.370;9.006;2023-04-24T11:11:01;13.50;99.90
11242;DHT22;5678;52.370;9.006;2023-04-24T11:14:01;14.10;99.90
11242;DHT22;5678;52.370;9.006;2023-04-24T11:16:30;13.60;99.90
11242;DHT22;5678;52.370;9.006;2023-04-24T11:19:05;13.40;99.90
11242;DHT22;5678;52.370;9.006;2023-04-24T11:21:41;13.40;99.90
11242;DHT22;5678;52.370;9.006;2023-04-24T11:24:27;12.90;99.90
11242;DHT22;5678;52.370;9.006;2023-04-24T11:26:57;13.40;99.90
11242;DHT22;5678;52.370;9.006;2023-04-24T11:29:42;12.90;99.90
11242;DHT22;5678;52.370;9.006;2023-04-24T11:32:34;13.20;99.90
11242;DHT22;5678;52.370;9.006;2023-04-24T11:35:04;12.50;99.90
11242;DHT22;5678;52.370;9.006;2023-04-24T11:37:37;12.40;99.90
11242;DHT22;5678;52.370;9.006;2023-04-24T11:40:09;12.20;99.90
11242;DHT22;5678;52.370;9.006;2023-04-24T11:42:39;12.10;99.90
11242;DHT22;5678;52.370;9.006;2023-04-24T11:45:08;12.00;99.90
11242;DHT22;5678;52.370;9.006;2023-04-24T11:47:37;11.90;99.90
11242;DHT22;5678;52.370;9.006;2023-04-24T11:50:07;11.90;99.90
11242;DHT22;5678;52.370;9.006;2023-04-24T11:52:37;11.80;99.90
11242;DHT22;5678;52.370;9.006;2023-04-24T11:55:09;11.70;99.90
11242;DHT22;5678;52.370;9.006;2023-04-24T11:57:52;11.60;99.90
11242;DHT22;5678;52.370;9.006;2023-04-24T12:00:21;11.20;99.90
11242;DHT22;5678;52.370;9.006;2023-04-24T12:02:50;11.50;99.90
11242;DHT22;5678;52.370;9.006;2023-04-24T12:05:23;10.80;99.90
11242;DHT22;5678;52.370;9.006;2023-04-24T12:07:52;11.90;99.90
11242;DHT22;5678;52.370;9.006;2023-04-24T12:10:22;11.10;99.90
11242;DHT22;5678;52.370;9.006;2023-04-24T12:12:50;11.10;99.90
11242;DHT22;5678;52.370;9.006;2023-04-24T12:15:19;11.10;99.90
11242;DHT22;5678;52.370;9.006;2023-04-24T12:17:48;11.10;99.90
11242;DHT22;5678;52.370;9.006;2023-04-24T12:20:24;11.10;99.90
11242;DHT22;5678;52.370;9.006;2023-04-24T12:22:53;10.60;99.90
11242;DHT22;5678;52.370;9.006;2023-04-24T12:25:24;10.90;99.90
11242;DHT22;5678;52.370;9.006;2023-04-24T12:27:54;10.90;99.90
11242;DHT22;5678;52.370;9.006;2023-04-24T12:30:27;12.80;99.90
11242;DHT22;5678;52.370;9.006;2023-04-24T12:32:57;11.40;99.90
11242;DHT22;5678;52.370;9.006;2023-04-24T12:35:27;12.60;99.90
11242;DHT22;5678;52.370;9.006;2023-04-24T12:37:56;10.90;99.90
11242;DHT22;5678;52.370;9.006;2023-04-24T12:40:34;10.80;99.90
11242;DHT22;5678;52.370;9.006;2023-04-24T12:43:02;10.70;99.90
11242;DHT22;5678;52.370;9.006;2023-04-24T12:45:40;10.40;99.90
11242;DHT22;5678;52.370;9.006;2023-04-24T12:48:07;10.20;99.90
11242;DHT22;5678;52.370;9.006;2023-04-24T12:50:36;11.60;99.90
11242;DHT22;5678;52.370;9.006;2023-04-24T12:53:04;10.00;99.90
11242;DHT22;5678;52.370;9.006;2023-04-24T12:55:33;9.90;99.90
11242;DHT22;5678;52.370;9.006;2023-04-24T12:58:01;9.80;99.90
11242;DHT22;5678;52.370;9.006;2023-04-24T13:00:29;10.00;99.90
11242;DHT22;5678;52.370;9.006;2023-04-24T13:02:57;9.70;99.90
11242;DHT22;5678;52.370;9.006;2023-04-24T13:05:25;11.60;99.90
11242;DHT22;5678;52.370;9.006;2023-04-24T13:07:53;10.10;99.90
11242;DHT22;5678;52.370;9.006;2023-04-24T13:10:21;9.40;99.90
11242;DHT22;5678;52.370;9.006;2023-04-24T13:12:50;9.50;99.90
11242;DHT22;5678;52.370;9.006;2023-04-24T13:15:19;9.30;99.90
11242;DHT22;5678;52.370;9.006;2023-04-24T13:17:47;10.00;99.90
11242;DHT22;5678;52.370;9.006;2023-04-24T13:20:15;9.30;99.90
11242;DHT22;5678;52.370;9.006;2023-04-24T13:22:43;9.30;99.90
11242;DHT22;5678;52.370;9.006;2023-04-24T13:25:10;10.40;99.90
11242;DHT22;5678;52.370;9.006;2023-04-24T13:27:39;9.20;99.90
11242;DHT22;5678;52.370;9.006;2023-04-24T13:30:09;8.90;99.90
11242;DHT22;5678;52.370;9.006;2023-04-24T13:32:38;9.20;99.90
11242;DHT22;5678;52.370;9.006;2023-04-24T13:35:06;9.10;99.90
11242;DHT22;5678;52.370;9.006;2023-04-24T13:37:34;9.10;99.90
11242;DHT22;5678;52.370;9.006;2023-04-24T13:40:02;8.90;99.90
11242;DHT22;5678;52.370;9.006;2023-04-24T13:42:32;9.10;99.90
11242;DHT22;5678;52.370;9.006;2023-04-24T13:45:00;8.80;99.90
11242;DHT22;5678;52.370;9.006;2023-04-24T13:47:50;9.80;99.90
11242;DHT22;5678;52.370;9.006;2023-04-24T13:50:19;8.70;99.90
11242;DHT22;5678;52.370;9.006;2023-04-24T13:52:47;8.90;99.90
11242;DHT22;5678;52.370;9.006;2023-04-24T13:55:15;9.40;99.90
11242;DHT22;5678;52.370;9.006;2023-04-24T13:57:43;8.60;99.90
11242;DHT22;5678;52.370;9.006;2023-04-24T14:00:11;8.70;99.90
11242;DHT22;5678;52.370;9.006;2023-04-24T14:02:40;8.90;99.90
11242;DHT22;5678;52.370;9.006;2023-04-24T14:05:09;9.00;99.90
11242;DHT22;5678;52.370;9.006;2023-04-24T14:07:38;9.00;99.90
11242;DHT22;5678;52.370;9.006;2023-04-24T14:10:07;9.20;99.90
11242;DHT22;5678;52.370;9.006;2023-04-24T14:12:35;9.30;99.90
11242;DHT22;5678;52.370;9.006;2023-04-24T14:15:04;9.50;99.90
11242;DHT22;5678;52.370;9.006;2023-04-24T14:17:32;9.60;99.90
11242;DHT22;5678;52.370;9.006;2023-04-24T14:20:00;9.80;99.90
11242;DHT22;5678;52.370;9.006;2023-04-24T14:22:29;9.40;99.90
11242;DHT22;5678;52.370;9.006;2023-04-24T14:24:57;9.60;99.90
11242;DHT22;5678;52.370;9.006;2023-04-24T14:27:26;9.40;99.90
11242;DHT22;5678;52.370;9.006;2023-04-24T14:29:54;9.30;99.90
11242;DHT22;5678;52.370;9.006;2023-04-24T14:32:22;9.00;99.90
11242;DHT22;5678;52.370;9.006;2023-04-24T14:34:50;9.60;99.90
11242;DHT22;5678;52.370;9.006;2023-04-24T14:37:18;9.60;99.90
11242;DHT22;5678;52.370;9.006;2023-04-24T14:39:47;9.30;99.90
11242;DHT22;5678;52.370;9.006;2023-04-24T14:42:22;9.50;99.90
11242;DHT22;5678;52.370;9.006;2023-04-24T14:44:50;9.70;99.90
11242;DHT22;5678;52.370;9.006;2023-04-24T14:47:18;9.40;99.90
11242;DHT22;5678;52.370;9.006;2023-04-24T14:49:47;9.80;99.90
11242;DHT22;5678;52.370;9.006;2023-04-24T14:52:16;9.60;99.90
11242;DHT22;5678;52.370;9.006;2023-04-24T14:54:44;9.90;99.90
11242;DHT22;5678;52.370;9.006;2023-04-24T14:57:13;9.90;99.90
11242;DHT22;5678;52.370;9.006;2023-04-24T14:59:42;9.90;99.90
11242;DHT22;5678;52.370;9.006;2023-04-24T15:02:10;9.70;99.90
11242;DHT22;5678;52.370;9.006;2023-04-24T15:04:42;9.50;99.90
11242;DHT22;5678;52.370;9.006;2023-04-24T15:07:11;9.50;99.90
11242;DHT22;5678;52.370;9.006;2023-04-24T15:09:39;9.90;99.90
11242;DHT22;5678;52.370;9.006;2023-04-24T15:12:07;9.80;99.90
11242;DHT22;5678;52.370;9.006;2023-04-24T15:14:37;9.90;99.90
11242;DHT22;5678;52.370;9.006;2023-04-24T15:17:05;9.90;99.90
11242;DHT22;5678;52.370;9.006;2023-04-24T15:19:34;10.70;99.90
11242;DHT22;5678;52.370;9.006;2023-04-24T15:22:01;10.10;99.90
11242;DHT22;5678;52.370;9.006;2023-04-24T15:24:29;9.80;99.90
11242;DHT22;5678;52.370;9.006;2023-04-24T15:26:58;9.80;99.90
11242;DHT22;5678;52.370;9.006;2023-04-24T15:29:28;9.80;99.90
11242;DHT22;5678;52.370;9.006;2023-04-24T15:31:57;9.80;99.90
11242;DHT22;5678;52.370;9.006;2023-04-24T15:34:25;9.70;99.90
11242;DHT22;5678;52.370;9.006;2023-04-24T15:36:53;9.70;99.90
11242;DHT22;5678;52.370;9.006;2023-04-24T15:39:22;9.60;99.90
11242;DHT22;5678;52.370;9.006;2023-04-24T15:41:51;9.60;99.90
11242;DHT22;5678;52.370;9.006;2023-04-24T15:44:20;9.60;99.90
11242;DHT22;5678;52.370;9.006;2023-04-24T15:46:48;9.50;99.90
11242;DHT22;5678;52.370;9.006;2023-04-24T15:49:19;9.00;99.90
11242;DHT22;5678;52.370;9.006;2023-04-24T15:51:47;9.30;99.90
11242;DHT22;5678;52.370;9.006;2023-04-24T15:54:15;8.90;99.90
11242;DHT22;5678;52.370;9.006;2023-04-24T15:56:42;9.10;99.90
11242;DHT22;5678;52.370;9.006;2023-04-24T15:59:11;9.10;99.90
11242;DHT22;5678;52.370;9.006;2023-04-24T16:01:39;9.10;99.90
11242;DHT22;5678;52.370;9.006;2023-04-24T16:04:07;8.80;99.90